createdAt,value
2023-03-12T00:04:05.506Z,99499.02
2023-03-12T00:09:02.052Z,99500.50
2023-03-12T00:14:11.662Z,99501.09
2023-03-12T00:19:04.541Z,99499.12
2023-03-12T00:23:57.368Z,99499.83
2023-03-12T00:28:55.241Z,99499.22
2023-03-12T00:33:50.072Z,99496.33
2023-03-12T00:38:43.548Z,99493.06
2023-03-12T00:43:37.294Z,99488.63
2023-03-12T00:48:30.065Z,99484.52
2023-03-12T00:53:23.096Z,99483.79
2023-03-12T00:58:16.001Z,99479.14
2023-03-12T01:03:08.855Z,99483.63
2023-03-12T01:08:01.819Z,99484.02
2023-03-12T01:12:54.626Z,99478.12
2023-03-12T01:17:47.487Z,99477.38
2023-03-12T01:22:40.650Z,99467.02
2023-03-12T01:27:33.441Z,99469.10
2023-03-12T01:32:26.485Z,99470.32
2023-03-12T01:37:19.289Z,99467.58
2023-03-12T01:42:12.154Z,99458.95
2023-03-12T01:47:04.995Z,99461.33
2023-03-12T01:52:19.658Z,99453.19
2023-03-12T01:57:22.402Z,99447.10
2023-03-12T02:02:18.731Z,99448.74
2023-03-12T02:07:14.731Z,99447.44
2023-03-12T02:12:09.073Z,99449.48
2023-03-12T02:17:02.374Z,99450.41
2023-03-12T02:21:56.742Z,99450.06
2023-03-12T02:26:49.960Z,99457.90
2023-03-12T02:31:51.732Z,99454.72
2023-03-12T02:36:44.947Z,99457.39
2023-03-12T02:41:42.540Z,99461.13
2023-03-12T02:46:39.472Z,99460.05
2023-03-12T02:51:32.673Z,99459.99
2023-03-12T02:56:27.780Z,99457.84
2023-03-12T03:01:21.884Z,99451.53
2023-03-12T03:06:16.200Z,99460.90
2023-03-12T03:11:09.452Z,99455.73
2023-03-12T03:16:03.965Z,99451.81
2023-03-12T03:21:17.524Z,99462.32
2023-03-12T03:26:11.559Z,99474.20
2023-03-12T03:31:05.839Z,99471.39
2023-03-12T03:36:02.384Z,99477.92
2023-03-12T03:40:57.025Z,99489.25
2023-03-12T03:45:50.586Z,99492.77
2023-03-12T03:50:43.739Z,99490.98
2023-03-12T03:55:42.545Z,99495.19
2023-03-12T04:00:35.781Z,99497.47
2023-03-12T04:05:29.837Z,99505.86
2023-03-12T04:10:24.988Z,99519.00
2023-03-12T04:15:18.378Z,99515.91
2023-03-12T04:20:13.057Z,99516.91
2023-03-12T04:25:07.888Z,99526.10
2023-03-12T04:30:01.151Z,99528.02
2023-03-12T04:34:54.043Z,99539.48
2023-03-12T04:39:47.042Z,99532.13
2023-03-12T04:44:41.148Z,99537.67
2023-03-12T04:49:34.315Z,99536.35
2023-03-12T04:54:28.210Z,99531.11
2023-03-12T04:59:21.289Z,99528.14
2023-03-12T05:04:14.642Z,99526.33
2023-03-12T05:09:08.983Z,99526.20
2023-03-12T05:14:03.030Z,99520.64
2023-03-12T05:18:55.971Z,99526.34
2023-03-12T05:23:49.657Z,99525.86
2023-03-12T05:28:44.231Z,99530.39
2023-03-12T05:33:37.974Z,99534.52
2023-03-12T05:38:31.166Z,99531.55
2023-03-12T05:43:24.685Z,99532.86
2023-03-12T05:48:18.189Z,99534.67
2023-03-12T05:53:11.745Z,99546.02
2023-03-12T05:58:06.513Z,99554.98
2023-03-12T06:03:00.226Z,99557.16
2023-03-12T06:07:53.161Z,99557.16
2023-03-12T06:12:46.859Z,99558.02
2023-03-12T06:17:39.738Z,99567.96
2023-03-12T06:22:32.792Z,99575.10
2023-03-12T06:27:26.171Z,99586.27
2023-03-12T06:32:19.564Z,99589.41
2023-03-12T06:37:13.116Z,99592.66
2023-03-12T06:42:06.844Z,99588.21
2023-03-12T06:46:59.923Z,99592.45
2023-03-12T06:51:53.638Z,99597.95
2023-03-12T06:56:46.511Z,99607.89
2023-03-12T07:01:39.434Z,99606.63
2023-03-12T07:06:32.275Z,99619.77
2023-03-12T07:11:25.064Z,99613.98
2023-03-12T07:16:17.916Z,99623.65
2023-03-12T07:21:10.814Z,99630.44
2023-03-12T07:26:06.543Z,99637.48
2023-03-12T07:31:04.162Z,99634.52
2023-03-12T07:35:57.181Z,99641.29
2023-03-12T07:40:55.385Z,99647.89
2023-03-12T07:45:48.678Z,99642.35
2023-03-12T07:50:41.592Z,99645.95
2023-03-12T07:55:36.069Z,99652.49
2023-03-12T08:00:30.693Z,99649.51
2023-03-12T08:05:24.995Z,99646.95
2023-03-12T08:10:17.997Z,99651.30
2023-03-12T08:15:12.892Z,99652.54
2023-03-12T08:20:09.492Z,99652.14
2023-03-12T08:25:02.291Z,99652.28
2023-03-12T08:29:55.511Z,99655.27
2023-03-12T08:34:48.381Z,99670.98
2023-03-12T08:39:41.665Z,99682.40
2023-03-12T08:44:34.982Z,99698.31
2023-03-12T08:49:27.912Z,99698.92
2023-03-12T08:54:21.718Z,99702.76
2023-03-12T08:59:14.894Z,99710.66
2023-03-12T09:04:08.016Z,99716.63
2023-03-12T09:09:05.066Z,99711.21
2023-03-12T09:14:31.187Z,99712.89
2023-03-12T09:19:10.932Z,99723.66
2023-03-12T09:24:03.826Z,99729.19
2023-03-12T09:28:58.114Z,99735.80
2023-03-12T09:33:50.950Z,99743.44
2023-03-12T09:38:43.723Z,99747.47
2023-03-12T09:44:16.794Z,99746.79
2023-03-12T09:49:24.280Z,99749.42
2023-03-12T09:54:28.803Z,99749.02
2023-03-12T09:59:21.596Z,99755.94
2023-03-12T10:04:59.058Z,99758.27
2023-03-12T10:10:07.358Z,99760.29
2023-03-12T10:15:21.679Z,99761.77
2023-03-12T10:20:26.296Z,99763.04
2023-03-12T10:25:43.699Z,99767.35
2023-03-12T10:30:37.006Z,99780.27
2023-03-12T10:35:30.652Z,99787.84
2023-03-12T10:40:27.422Z,99782.95
2023-03-12T10:45:43.229Z,99794.15
2023-03-12T10:50:39.473Z,99807.05
2023-03-12T10:55:33.043Z,99809.35
2023-03-12T11:00:29.812Z,99812.33
2023-03-12T11:05:30.974Z,99811.77
2023-03-12T11:10:34.136Z,99822.91
2023-03-12T11:15:32.645Z,99821.34
2023-03-12T11:20:30.461Z,99828.91
2023-03-12T11:25:27.436Z,99830.77
2023-03-12T11:30:27.963Z,99821.54
2023-03-12T11:35:42.667Z,99818.23
2023-03-12T11:41:02.468Z,99827.17
2023-03-12T11:46:07.553Z,99828.08
2023-03-12T11:51:28.317Z,99839.13
2023-03-12T11:56:31.387Z,99841.02
2023-03-12T12:01:53.854Z,99845.88
2023-03-12T12:07:04.927Z,99834.20
2023-03-12T12:12:05.638Z,99833.37
2023-03-12T12:17:07.516Z,99838.36
2023-03-12T12:22:21.847Z,99841.66
2023-03-12T12:27:21.994Z,99845.64
2023-03-12T12:32:24.278Z,99834.67
2023-03-12T12:37:37.417Z,99833.58
2023-03-12T12:42:34.846Z,99848.27
2023-03-12T12:48:00.903Z,99856.42
2023-03-12T12:53:07.006Z,99857.35
2023-03-12T12:58:16.995Z,99868.75
2023-03-12T13:03:24.720Z,99882.52
2023-03-12T13:09:00.672Z,99887.84
2023-03-12T13:14:15.568Z,99898.14
2023-03-12T13:19:22.872Z,99899.70
2023-03-12T13:24:24.570Z,99898.45
2023-03-12T13:29:29.541Z,99919.13
2023-03-12T13:34:26.836Z,99927.23
2023-03-12T13:39:29.453Z,99918.05
2023-03-12T13:44:25.297Z,99931.40
2023-03-12T13:49:19.937Z,99926.77
2023-03-12T13:54:20.965Z,99931.16
2023-03-12T13:59:18.925Z,99930.41
2023-03-12T14:04:38.959Z,99937.66
2023-03-12T14:09:48.241Z,99935.18
2023-03-12T14:15:19.088Z,99940.35
2023-03-12T14:20:14.358Z,99956.14
2023-03-12T14:25:15.521Z,99961.98
2023-03-12T14:30:13.379Z,99964.12
2023-03-12T14:35:30.558Z,99970.60
2023-03-12T14:40:30.110Z,99974.22
2023-03-12T14:45:24.217Z,99978.10
2023-03-12T14:50:31.834Z,99975.36
2023-03-12T14:55:26.940Z,99974.44
2023-03-12T15:00:25.688Z,99977.35
2023-03-12T15:05:21.468Z,99983.20
2023-03-12T15:10:34.780Z,99990.52
2023-03-12T15:15:36.502Z,100002.56
2023-03-12T15:20:31.106Z,100012.38
2023-03-12T15:25:32.277Z,100020.97
2023-03-12T15:30:28.099Z,100029.94
2023-03-12T15:35:26.764Z,100031.08
2023-03-12T15:40:31.022Z,100033.73
2023-03-12T15:45:49.354Z,100030.44
2023-03-12T15:50:45.492Z,100033.01
2023-03-12T15:55:38.632Z,100036.73
2023-03-12T16:00:47.021Z,100037.00
2023-03-12T16:05:41.072Z,100047.28
2023-03-12T16:10:38.752Z,100048.33
2023-03-12T16:15:49.047Z,100049.89
2023-03-12T16:20:59.280Z,100055.47
2023-03-12T16:26:04.709Z,100056.44
2023-03-12T16:31:31.456Z,100056.87
2023-03-12T16:36:55.927Z,100068.20
2023-03-12T16:41:55.840Z,100076.02
2023-03-12T16:47:14.447Z,100077.56
2023-03-12T16:52:22.446Z,100081.12
2023-03-12T16:57:38.172Z,100091.12
2023-03-12T17:02:32.851Z,100093.33
2023-03-12T17:07:25.891Z,100102.75
2023-03-12T17:12:25.782Z,100109.16
2023-03-12T17:17:18.654Z,100108.41
2023-03-12T17:22:11.538Z,100106.06
2023-03-12T17:27:04.858Z,100111.84
2023-03-12T17:31:57.724Z,100113.86
2023-03-12T17:36:50.578Z,100122.34
2023-03-12T17:41:43.621Z,100130.45
2023-03-12T17:46:39.240Z,100136.21
2023-03-12T17:51:35.251Z,100138.59
2023-03-12T17:56:28.165Z,100140.41
2023-03-12T18:01:21.027Z,100141.06
2023-03-12T18:06:14.217Z,100139.73
2023-03-12T18:11:07.448Z,100138.84
2023-03-12T18:16:00.593Z,100146.52
2023-03-12T18:20:53.546Z,100154.76
2023-03-12T18:25:46.733Z,100164.59
2023-03-12T18:30:39.574Z,100172.51
2023-03-12T18:35:32.939Z,100173.94
2023-03-12T18:40:27.679Z,100175.82
2023-03-12T18:45:20.485Z,100173.64
2023-03-12T18:50:14.202Z,100181.83
2023-03-12T18:55:07.242Z,100182.95
2023-03-12T19:00:00.423Z,100184.56
2023-03-12T19:04:55.990Z,100178.59
2023-03-12T19:09:49.107Z,100170.88
2023-03-12T19:14:42.358Z,100170.55
2023-03-12T19:19:35.162Z,100167.23
2023-03-12T19:24:28.228Z,100167.85
2023-03-12T19:29:21.152Z,100165.98
2023-03-12T19:34:14.467Z,100168.15
2023-03-12T19:39:20.542Z,100180.61
2023-03-12T19:44:14.176Z,100193.02
2023-03-12T19:49:06.944Z,100192.32
2023-03-12T19:53:59.709Z,100191.98
2023-03-12T19:58:52.554Z,100201.41
2023-03-12T20:03:45.431Z,100208.38
2023-03-12T20:08:38.307Z,100209.35
2023-03-12T20:13:31.324Z,100210.83
2023-03-12T20:18:24.568Z,100214.84
2023-03-12T20:23:18.183Z,100220.15
2023-03-12T20:28:11.989Z,100217.59
2023-03-12T20:33:06.127Z,100217.50
2023-03-12T20:37:59.842Z,100206.43
2023-03-12T20:42:52.702Z,100202.56
2023-03-12T20:47:45.568Z,100199.52
2023-03-12T20:52:39.229Z,100186.33
2023-03-12T20:57:32.141Z,100182.72
2023-03-12T21:02:25.280Z,100172.55
2023-03-12T21:07:18.238Z,100179.75
2023-03-12T21:12:11.085Z,100184.93
2023-03-12T21:17:03.972Z,100174.05
2023-03-12T21:21:56.990Z,100178.93
2023-03-12T21:26:49.849Z,100173.80
2023-03-12T21:31:42.765Z,100166.23
2023-03-12T21:36:35.585Z,100160.80
2023-03-12T21:41:28.391Z,100164.36
2023-03-12T21:46:24.860Z,100163.60
2023-03-12T21:51:19.731Z,100165.61
2023-03-12T21:56:13.222Z,100161.08
2023-03-12T22:01:09.447Z,100161.52
2023-03-12T22:06:02.526Z,100158.44
2023-03-12T22:10:55.767Z,100158.23
2023-03-12T22:16:00.998Z,100156.48
2023-03-12T22:20:55.653Z,100152.89
2023-03-12T22:25:48.840Z,100144.00
2023-03-12T22:30:41.669Z,100138.42
2023-03-12T22:35:34.505Z,100138.66
2023-03-12T22:40:27.913Z,100134.63
2023-03-12T22:45:20.945Z,100138.73
2023-03-12T22:50:14.230Z,100132.73
2023-03-12T22:55:07.539Z,100125.91
2023-03-12T23:00:00.341Z,100124.20
2023-03-12T23:04:53.709Z,100118.65
2023-03-12T23:09:48.230Z,100117.38
2023-03-12T23:14:41.075Z,100101.33
2023-03-12T23:19:35.108Z,100099.98
2023-03-12T23:24:27.902Z,100101.45
2023-03-12T23:29:20.707Z,100095.05
2023-03-12T23:34:13.565Z,100098.19
2023-03-12T23:39:06.452Z,100099.28
2023-03-12T23:44:01.141Z,100081.41
2023-03-12T23:48:55.045Z,100059.11
2023-03-12T23:53:53.778Z,100064.54
2023-03-12T23:58:47.368Z,100076.36
